Time;durP1;ratioP1;P1;durP2;ratioP2;P2;SDS_P1;SDS_P2;PMS_P1;PMS_P2;Temp;Humidity;BMP_temperature;BMP_pressure;BME280_temperature;BME280_humidity;BME280_pressure;Samples;Min_cycle;Max_cycle;Signal;HPM_P1;HPM_P2
2022/10/28 00:01:16;;;;;;;69.18;25.10;;;;;;;;;;5000792;28;20053;-84
2022/10/28 00:03:43;;;;;;;77.57;25.42;;;;;;;;;;5007618;28;20034;-84
2022/10/28 00:06:11;;;;;;;64.43;22.85;;;;;;;;;;5028150;28;20045;-84
2022/10/28 00:08:41;;;;;;;62.75;24.48;;;;;;;;;;5012112;28;20030;-83
2022/10/28 00:11:11;;;;;;;75.00;26.15;;;;;;;;;;5027663;28;20061;-85
2022/10/28 00:13:38;;;;;;;65.05;24.50;;;;;;;;;;5007365;28;20037;-84
2022/10/28 00:16:07;;;;;;;68.57;23.75;;;;;;;;;;5017552;28;20161;-82
2022/10/28 00:18:33;;;;;;;75.40;25.65;;;;;;;;;;5010699;28;20056;-84
2022/10/28 00:21:04;;;;;;;63.65;23.92;;;;;;;;;;5009140;28;20041;-82
2022/10/28 00:23:30;;;;;;;63.78;24.25;;;;;;;;;;5027573;28;20025;-83
2022/10/28 00:26:03;;;;;;;70.25;25.67;;;;;;;;;;5008493;28;20026;-83
2022/10/28 00:28:29;;;;;;;67.13;24.42;;;;;;;;;;5011077;28;20037;-83
2022/10/28 00:30:56;;;;;;;68.88;24.52;;;;;;;;;;5004782;28;20034;-82
2022/10/28 00:33:23;;;;;;;71.60;24.48;;;;;;;;;;5023402;28;20033;-83
2022/10/28 00:35:49;;;;;;;67.53;24.30;;;;;;;;;;5026798;28;20113;-83
2022/10/28 00:38:15;;;;;;;58.92;22.48;;;;;;;;;;5029501;28;20025;-82
2022/10/28 00:40:42;;;;;;;64.85;22.13;;;;;;;;;;5012129;28;20167;-82
2022/10/28 00:43:09;;;;;;;65.80;23.35;;;;;;;;;;5013372;28;20084;-83
2022/10/28 00:45:35;;;;;;;62.38;21.77;;;;;;;;;;5026901;28;20053;-84
2022/10/28 00:48:02;;;;;;;62.80;21.77;;;;;;;;;;4995772;28;20026;-83
2022/10/28 00:50:28;;;;;;;62.70;21.90;;;;;;;;;;5010624;28;20033;-83
2022/10/28 00:53:00;;;;;;;68.70;22.95;;;;;;;;;;5009949;28;20315;-83
2022/10/28 00:55:27;;;;;;;71.75;22.23;;;;;;;;;;5008694;28;20022;-81
2022/10/28 00:58:00;;;;;;;66.97;24.45;;;;;;;;;;5028077;28;20026;-82
2022/10/28 01:00:26;;;;;;;;;;;;;;;;;;5005766;28;20446;-83
2022/10/28 01:02:53;;;;;;;66.80;23.45;;;;;;;;;;5026660;28;19917;-82
2022/10/28 01:05:22;;;;;;;63.50;23.13;;;;;;;;;;5027499;28;20029;-83
2022/10/28 01:07:49;;;;;;;62.80;22.88;;;;;;;;;;5026766;28;20061;-82
2022/10/28 01:10:15;;;;;;;61.70;23.08;;;;;;;;;;5026808;28;20033;-83
2022/10/28 01:12:58;;;;;;;68.43;22.73;;;;;;;;;;5004180;28;20037;-83
2022/10/28 01:15:24;;;;;;;67.38;23.30;;;;;;;;;;5025064;28;20026;-83
2022/10/28 01:17:56;;;;;;;66.38;22.77;;;;;;;;;;5018090;28;20113;-83
2022/10/28 01:20:31;;;;;;;67.43;24.70;;;;;;;;;;5026753;28;20084;-81
2022/10/28 01:23:04;;;;;;;62.08;23.40;;;;;;;;;;5011512;28;20269;-84
2022/10/28 01:25:48;;;;;;;64.07;23.05;;;;;;;;;;5008886;28;20087;-82
2022/10/28 01:28:27;;;;;;;62.67;22.38;;;;;;;;;;5008188;28;20038;-82
2022/10/28 01:31:11;;;;;;;72.32;24.67;;;;;;;;;;5017068;28;20040;-82
2022/10/28 01:33:46;;;;;;;66.55;23.50;;;;;;;;;;5027061;28;20396;-82
2022/10/28 01:36:39;;;;;;;69.28;23.75;;;;;;;;;;5026712;28;20044;-82
2022/10/28 01:39:12;;;;;;;72.90;25.48;;;;;;;;;;4990667;28;20042;-81
2022/10/28 01:41:51;;;;;;;73.32;26.23;;;;;;;;;;5026372;28;20086;-82
2022/10/28 01:44:32;;;;;;;63.78;23.27;;;;;;;;;;5025629;28;20030;-82
2022/10/28 01:47:01;;;;;;;69.03;24.77;;;;;;;;;;5006516;28;20034;-82
2022/10/28 01:49:30;;;;;;;62.03;25.10;;;;;;;;;;5007832;28;20026;-83
2022/10/28 01:52:00;;;;;;;69.15;25.38;;;;;;;;;;5025672;28;20494;-83
2022/10/28 01:54:29;;;;;;;63.75;24.15;;;;;;;;;;5008140;28;20052;-82
2022/10/28 01:56:56;;;;;;;71.93;25.05;;;;;;;;;;5026102;28;20026;-82
2022/10/28 01:59:24;;;;;;;71.40;24.98;;;;;;;;;;5026835;28;20315;-83
2022/10/28 02:01:50;;;;;;;69.13;25.65;;;;;;;;;;5025119;28;20056;-82
2022/10/28 02:04:20;;;;;;;66.95;24.27;;;;;;;;;;5025215;28;20021;-82
2022/10/28 02:06:50;;;;;;;72.95;26.75;;;;;;;;;;5025701;28;20030;-82
2022/10/28 02:09:39;;;;;;;68.53;26.20;;;;;;;;;;5008886;28;20030;-82
2022/10/28 02:12:05;;;;;;;70.30;25.42;;;;;;;;;;5006791;28;20654;-81
2022/10/28 02:14:54;;;;;;;69.03;26.73;;;;;;;;;;5005834;28;20090;-83
2022/10/28 02:17:38;;;;;;;66.43;24.27;;;;;;;;;;5006911;28;20049;-82
2022/10/28 02:20:07;;;;;;;62.22;24.88;;;;;;;;;;5013234;28;20096;-82
2022/10/28 02:22:51;;;;;;;67.93;25.00;;;;;;;;;;5030149;28;20065;-82
2022/10/28 02:25:28;;;;;;;71.32;27.38;;;;;;;;;;5024681;28;20030;-82
2022/10/28 02:27:59;;;;;;;75.60;26.95;;;;;;;;;;5024042;28;20065;-82
2022/10/28 02:30:32;;;;;;;69.57;25.65;;;;;;;;;;5024714;28;20030;-82
2022/10/28 02:33:00;;;;;;;64.70;25.38;;;;;;;;;;5006851;28;20373;-81
2022/10/28 02:35:26;;;;;;;70.90;24.33;;;;;;;;;;5024385;28;20046;-83
2022/10/28 02:37:53;;;;;;;73.22;26.35;;;;;;;;;;5025882;28;20037;-82
2022/10/28 02:40:21;;;;;;;69.50;27.08;;;;;;;;;;5005099;28;20030;-82
2022/10/28 02:42:50;;;;;;;64.85;27.77;;;;;;;;;;5007833;28;20010;-82
2022/10/28 02:45:18;;;;;;;62.55;24.95;;;;;;;;;;5006153;28;20036;-82
2022/10/28 02:47:46;;;;;;;72.10;26.83;;;;;;;;;;5009706;28;20036;-83
2022/10/28 02:50:15;;;;;;;61.67;25.80;;;;;;;;;;5006356;28;20030;-82
2022/10/28 02:52:42;;;;;;;61.13;23.27;;;;;;;;;;5026355;28;20094;-82
2022/10/28 02:55:09;;;;;;;65.47;25.58;;;;;;;;;;5008714;28;20045;-82
2022/10/28 02:57:38;;;;;;;62.00;23.98;;;;;;;;;;5025487;28;20095;-83
2022/10/28 03:00:08;;;;;;;58.55;24.50;;;;;;;;;;5028237;28;20022;-83
2022/10/28 03:02:34;;;;;;;52.00;23.17;;;;;;;;;;5005666;28;20037;-81
2022/10/28 03:05:03;;;;;;;55.63;24.35;;;;;;;;;;5027299;28;20025;-82
2022/10/28 03:07:29;;;;;;;57.85;22.88;;;;;;;;;;5020285;28;20054;-82
2022/10/28 03:09:55;;;;;;;57.42;23.85;;;;;;;;;;5011027;28;20034;-82
2022/10/28 03:12:21;;;;;;;54.92;22.95;;;;;;;;;;5011113;28;20026;-82
2022/10/28 03:14:50;;;;;;;59.95;24.25;;;;;;;;;;5026477;28;20026;-83
2022/10/28 03:17:16;;;;;;;54.17;22.80;;;;;;;;;;5024308;28;20044;-81
2022/10/28 03:19:42;;;;;;;53.25;22.10;;;;;;;;;;5010010;28;20032;-82
2022/10/28 03:22:08;;;;;;;54.58;24.13;;;;;;;;;;5009258;28;20033;-83
2022/10/28 03:24:34;;;;;;;50.58;22.00;;;;;;;;;;5004900;28;20044;-82
2022/10/28 03:27:01;;;;;;;52.30;20.77;;;;;;;;;;5009510;28;20064;-83
2022/10/28 03:29:30;;;;;;;48.80;21.23;;;;;;;;;;5027000;28;20425;-82
2022/10/28 03:31:56;;;;;;;51.85;20.80;;;;;;;;;;5010253;28;20049;-81
2022/10/28 03:34:22;;;;;;;47.22;20.85;;;;;;;;;;5027547;28;20032;-82
2022/10/28 03:36:48;;;;;;;51.95;21.15;;;;;;;;;;5009655;28;20305;-82
2022/10/28 03:39:14;;;;;;;56.35;22.13;;;;;;;;;;5010750;28;20028;-82
2022/10/28 03:41:40;;;;;;;49.85;21.48;;;;;;;;;;5012252;28;20027;-82
2022/10/28 03:44:06;;;;;;;53.67;22.40;;;;;;;;;;5024655;28;20026;-82
2022/10/28 03:46:32;;;;;;;51.00;21.73;;;;;;;;;;5018830;28;20022;-82
2022/10/28 03:48:58;;;;;;;55.20;22.77;;;;;;;;;;5026317;28;20030;-82
2022/10/28 03:51:25;;;;;;;59.20;24.63;;;;;;;;;;5007446;28;20026;-82
2022/10/28 03:53:51;;;;;;;62.40;23.13;;;;;;;;;;5008759;28;20033;-82
2022/10/28 03:56:17;;;;;;;59.42;24.63;;;;;;;;;;5031410;28;20030;-83
2022/10/28 03:58:43;;;;;;;61.10;24.05;;;;;;;;;;5011890;28;20097;-82
2022/10/28 04:01:09;;;;;;;60.65;23.17;;;;;;;;;;5007080;28;20045;-82
2022/10/28 04:03:35;;;;;;;63.67;23.98;;;;;;;;;;5019541;28;20046;-83
2022/10/28 04:06:01;;;;;;;66.38;26.83;;;;;;;;;;5008472;28;20034;-83
2022/10/28 04:08:27;;;;;;;65.70;26.33;;;;;;;;;;5026480;28;20057;-83
2022/10/28 04:10:53;;;;;;;62.70;25.63;;;;;;;;;;5005845;28;20026;-83
2022/10/28 04:13:19;;;;;;;56.67;22.77;;;;;;;;;;5026024;28;20036;-83
2022/10/28 04:15:46;;;;;;;61.25;23.33;;;;;;;;;;5007897;28;20029;-83
2022/10/28 04:18:12;;;;;;;62.22;24.08;;;;;;;;;;5009976;28;20026;-83
2022/10/28 04:20:38;;;;;;;65.50;23.83;;;;;;;;;;5026140;28;20421;-82
2022/10/28 04:23:04;;;;;;;64.18;25.88;;;;;;;;;;5009485;28;20057;-83
2022/10/28 04:25:30;;;;;;;59.70;23.70;;;;;;;;;;5025894;28;20037;-82
2022/10/28 04:27:56;;;;;;;56.35;23.17;;;;;;;;;;5008552;28;20057;-83
2022/10/28 04:30:22;;;;;;;55.75;24.02;;;;;;;;;;5026428;28;20036;-82
2022/10/28 04:32:48;;;;;;;53.65;21.80;;;;;;;;;;5006873;28;20278;-82
2022/10/28 04:35:14;;;;;;;65.15;24.17;;;;;;;;;;5006284;28;20046;-81
2022/10/28 04:37:40;;;;;;;55.38;22.48;;;;;;;;;;5005868;28;20022;-82
2022/10/28 04:40:08;;;;;;;63.65;22.83;;;;;;;;;;5024007;28;20026;-82
2022/10/28 04:42:35;;;;;;;57.78;23.15;;;;;;;;;;5022032;28;20018;-80
2022/10/28 04:45:01;;;;;;;61.75;23.85;;;;;;;;;;5004664;28;20029;-81
2022/10/28 04:47:27;;;;;;;66.72;24.60;;;;;;;;;;5004634;28;20033;-82
2022/10/28 04:49:54;;;;;;;53.53;22.23;;;;;;;;;;5004819;28;20544;-82
2022/10/28 04:52:20;;;;;;;58.40;23.77;;;;;;;;;;5002840;28;20443;-80
2022/10/28 04:54:46;;;;;;;56.20;23.33;;;;;;;;;;5000467;28;20022;-81
2022/10/28 04:57:13;;;;;;;58.97;23.60;;;;;;;;;;5014267;28;20018;-81
2022/10/28 04:59:39;;;;;;;53.00;21.55;;;;;;;;;;5004286;28;20026;-82
2022/10/28 05:02:05;;;;;;;56.03;22.20;;;;;;;;;;5004433;28;20129;-81
2022/10/28 05:04:31;;;;;;;47.03;20.90;;;;;;;;;;5003322;28;20095;-80
2022/10/28 05:06:59;;;;;;;45.75;20.75;;;;;;;;;;5015133;28;20086;-81
2022/10/28 05:09:25;;;;;;;45.88;19.50;;;;;;;;;;4985220;28;20037;-81
2022/10/28 05:11:53;;;;;;;42.78;20.05;;;;;;;;;;4985701;28;20030;-81
2022/10/28 05:14:20;;;;;;;38.50;17.42;;;;;;;;;;5003891;28;20118;-82
2022/10/28 05:16:46;;;;;;;37.00;17.83;;;;;;;;;;5004248;28;20085;-81
2022/10/28 05:19:14;;;;;;;39.13;18.23;;;;;;;;;;5002324;28;20037;-82
2022/10/28 05:21:40;;;;;;;37.47;17.30;;;;;;;;;;5010906;28;20037;-80
2022/10/28 05:24:06;;;;;;;40.47;18.55;;;;;;;;;;5021498;28;20030;-81
2022/10/28 05:26:32;;;;;;;38.67;18.98;;;;;;;;;;5005124;28;20034;-81
2022/10/28 05:28:59;;;;;;;46.42;20.13;;;;;;;;;;4998687;28;20041;-82
2022/10/28 05:31:26;;;;;;;36.30;17.92;;;;;;;;;;5000771;28;20049;-80
2022/10/28 05:33:52;;;;;;;42.05;18.25;;;;;;;;;;5022563;28;20163;-80
2022/10/28 05:36:18;;;;;;;35.33;16.00;;;;;;;;;;5007449;28;20022;-81
2022/10/28 05:38:45;;;;;;;34.60;17.48;;;;;;;;;;4997876;28;20255;-81
2022/10/28 05:41:11;;;;;;;31.88;15.43;;;;;;;;;;5014589;28;20049;-80
2022/10/28 05:43:37;;;;;;;32.97;16.35;;;;;;;;;;5022124;28;20038;-80
2022/10/28 05:46:03;;;;;;;32.63;15.13;;;;;;;;;;5016896;28;20029;-82
2022/10/28 05:48:30;;;;;;;33.28;15.57;;;;;;;;;;5023235;28;20017;-82
2022/10/28 05:54:32;;;;;;;34.45;14.88;;;;;;;;;;5007910;28;20084;-84
2022/10/28 05:56:58;;;;;;;34.20;16.63;;;;;;;;;;4990588;28;20061;-84
2022/10/28 05:59:24;;;;;;;29.60;14.15;;;;;;;;;;5020037;28;20022;-85
2022/10/28 06:01:50;;;;;;;31.35;15.32;;;;;;;;;;4999262;28;20078;-85
2022/10/28 06:04:16;;;;;;;31.02;14.57;;;;;;;;;;5009832;28;20032;-83
2022/10/28 06:06:42;;;;;;;32.72;15.50;;;;;;;;;;5000375;28;20077;-84
2022/10/28 06:09:08;;;;;;;33.95;14.93;;;;;;;;;;4993936;28;20053;-83
2022/10/28 06:11:35;;;;;;;29.63;14.98;;;;;;;;;;5001758;28;20026;-84
2022/10/28 06:14:01;;;;;;;29.60;15.75;;;;;;;;;;5002253;28;20026;-84
2022/10/28 06:16:28;;;;;;;28.67;15.23;;;;;;;;;;4988301;28;20105;-83
2022/10/28 06:18:57;;;;;;;27.08;15.38;;;;;;;;;;4990818;28;20041;-84
2022/10/28 06:21:23;;;;;;;28.15;14.50;;;;;;;;;;5004262;28;20027;-84
2022/10/28 06:23:50;;;;;;;33.05;16.40;;;;;;;;;;5003260;28;20018;-83
2022/10/28 06:26:17;;;;;;;31.05;16.13;;;;;;;;;;4995325;28;20038;-85
2022/10/28 06:28:43;;;;;;;30.55;15.18;;;;;;;;;;5005610;28;20065;-82
2022/10/28 06:31:11;;;;;;;37.17;18.42;;;;;;;;;;4996144;28;20026;-82
2022/10/28 06:33:37;;;;;;;38.45;18.48;;;;;;;;;;4993747;28;20033;-83
2022/10/28 06:36:03;;;;;;;43.65;17.63;;;;;;;;;;5000115;28;20118;-83
2022/10/28 06:38:29;;;;;;;38.20;17.85;;;;;;;;;;5000056;28;20065;-84
2022/10/28 06:40:59;;;;;;;47.80;20.63;;;;;;;;;;4996193;28;20050;-84
2022/10/28 06:43:25;;;;;;;43.53;19.20;;;;;;;;;;4999803;28;20033;-82
2022/10/28 06:45:55;;;;;;;37.22;18.45;;;;;;;;;;4997570;28;20019;-82
2022/10/28 06:48:22;;;;;;;42.28;19.17;;;;;;;;;;5001045;28;20026;-84
2022/10/28 06:50:48;;;;;;;43.60;19.42;;;;;;;;;;4993077;28;20483;-84
2022/10/28 06:53:14;;;;;;;41.67;18.95;;;;;;;;;;5003083;28;20545;-83
2022/10/28 06:55:47;;;;;;;43.10;17.58;;;;;;;;;;5005327;28;20392;-84
2022/10/28 06:58:13;;;;;;;38.10;17.67;;;;;;;;;;5001510;28;20027;-85
2022/10/28 07:00:39;;;;;;;40.38;18.15;;;;;;;;;;4999233;28;20478;-83
2022/10/28 07:03:05;;;;;;;37.88;17.98;;;;;;;;;;5019748;28;20045;-83
2022/10/28 07:05:31;;;;;;;35.67;17.92;;;;;;;;;;5023083;28;20029;-84
2022/10/28 07:08:00;;;;;;;34.95;17.85;;;;;;;;;;5006508;28;20030;-84
2022/10/28 07:10:26;;;;;;;37.35;18.45;;;;;;;;;;5020705;28;20026;-83
2022/10/28 07:12:53;;;;;;;35.17;18.40;;;;;;;;;;5000651;28;20026;-84
2022/10/28 07:15:19;;;;;;;34.40;17.83;;;;;;;;;;5002248;28;20084;-85
2022/10/28 07:17:51;;;;;;;38.60;18.60;;;;;;;;;;4995715;28;20033;-84
2022/10/28 07:20:17;;;;;;;38.55;18.48;;;;;;;;;;5017101;28;20026;-83
2022/10/28 07:22:43;;;;;;;34.45;17.23;;;;;;;;;;5004532;28;20036;-84
2022/10/28 07:25:09;;;;;;;42.17;17.63;;;;;;;;;;5006138;28;20030;-83
2022/10/28 07:27:35;;;;;;;37.63;17.27;;;;;;;;;;5005983;28;20037;-84
2022/10/28 07:30:01;;;;;;;38.83;18.48;;;;;;;;;;5016956;28;20030;-82
2022/10/28 07:32:31;;;;;;;39.83;18.67;;;;;;;;;;4993655;28;20379;-82
2022/10/28 07:34:57;;;;;;;33.85;16.90;;;;;;;;;;5019150;28;20496;-85
2022/10/28 07:37:23;;;;;;;38.30;18.85;;;;;;;;;;5004231;28;20030;-84
2022/10/28 07:39:50;;;;;;;37.05;18.02;;;;;;;;;;5026872;28;20021;-83
2022/10/28 07:42:16;;;;;;;39.60;18.40;;;;;;;;;;5026211;28;20026;-84
2022/10/28 07:44:50;;;;;;;36.53;18.13;;;;;;;;;;5010264;28;20082;-83
2022/10/28 07:47:18;;;;;;;39.65;18.48;;;;;;;;;;5015448;28;20030;-83
2022/10/28 07:49:44;;;;;;;41.38;18.65;;;;;;;;;;5011945;28;20522;-84
2022/10/28 07:52:10;;;;;;;44.35;19.48;;;;;;;;;;5007954;28;20031;-83
2022/10/28 07:54:36;;;;;;;38.47;17.60;;;;;;;;;;5009829;28;20018;-83
2022/10/28 07:57:02;;;;;;;38.20;19.05;;;;;;;;;;5007490;28;20034;-83
2022/10/28 07:59:29;;;;;;;38.03;19.58;;;;;;;;;;5026972;28;20053;-83
2022/10/28 08:01:55;;;;;;;41.22;19.25;;;;;;;;;;5026129;28;20038;-85
2022/10/28 08:04:21;;;;;;;36.10;18.38;;;;;;;;;;5005905;28;20029;-84
2022/10/28 08:06:47;;;;;;;35.05;17.45;;;;;;;;;;5022111;28;20509;-84
2022/10/28 08:09:13;;;;;;;32.58;15.45;;;;;;;;;;5020864;28;20529;-84
2022/10/28 08:11:40;;;;;;;31.85;15.60;;;;;;;;;;5003149;28;20446;-86
2022/10/28 08:14:06;;;;;;;32.28;15.68;;;;;;;;;;4990613;28;20041;-84
2022/10/28 08:16:32;;;;;;;29.88;15.82;;;;;;;;;;4997313;28;20029;-84
2022/10/28 08:18:58;;;;;;;30.65;16.35;;;;;;;;;;5025018;28;20109;-85
2022/10/28 08:21:27;;;;;;;32.33;16.42;;;;;;;;;;5026164;28;20026;-84
2022/10/28 08:23:54;;;;;;;34.47;17.40;;;;;;;;;;5021793;28;20025;-84
2022/10/28 08:26:22;;;;;;;38.53;17.67;;;;;;;;;;5007601;28;20021;-84
2022/10/28 08:28:48;;;;;;;38.00;18.05;;;;;;;;;;5006896;28;20053;-84
2022/10/28 08:31:14;;;;;;;35.35;17.70;;;;;;;;;;5003063;28;20105;-85
2022/10/28 08:33:44;;;;;;;33.45;16.50;;;;;;;;;;5010868;28;20026;-83
2022/10/28 08:36:14;;;;;;;35.75;15.68;;;;;;;;;;4997157;28;20030;-85
2022/10/28 08:38:45;;;;;;;38.85;18.27;;;;;;;;;;5007585;28;20026;-84
2022/10/28 08:41:20;;;;;;;40.22;19.33;;;;;;;;;;5009942;28;20108;-84
2022/10/28 08:43:47;;;;;;;36.50;18.35;;;;;;;;;;5007995;28;20093;-84
2022/10/28 08:46:19;;;;;;;36.88;17.73;;;;;;;;;;5029197;28;20026;-85
2022/10/28 08:48:45;;;;;;;42.75;18.27;;;;;;;;;;5010173;28;20104;-84
2022/10/28 08:51:28;;;;;;;42.92;17.75;;;;;;;;;;5024950;28;20034;-84
2022/10/28 08:53:56;;;;;;;37.53;18.52;;;;;;;;;;5009579;28;20421;-86
2022/10/28 08:56:24;;;;;;;36.63;17.27;;;;;;;;;;5010946;28;20096;-85
2022/10/28 08:58:55;;;;;;;39.38;18.77;;;;;;;;;;5028079;28;20056;-85
2022/10/28 09:01:30;;;;;;;39.70;18.92;;;;;;;;;;5026512;28;20053;-84
2022/10/28 09:03:58;;;;;;;38.38;18.48;;;;;;;;;;5030605;28;20033;-83
2022/10/28 09:06:24;;;;;;;39.95;18.95;;;;;;;;;;5034890;28;20049;-84
2022/10/28 09:08:51;;;;;;;39.58;19.13;;;;;;;;;;5031656;28;20017;-85
2022/10/28 09:11:36;;;;;;;38.83;20.83;;;;;;;;;;5009881;28;20022;-84
2022/10/28 09:14:18;;;;;;;38.97;20.45;;;;;;;;;;5025422;28;20048;-84
2022/10/28 09:16:49;;;;;;;38.17;19.38;;;;;;;;;;5017664;28;20033;-84
2022/10/28 09:19:30;;;;;;;35.03;18.48;;;;;;;;;;5026594;28;20038;-84
2022/10/28 09:22:21;;;;;;;38.58;18.05;;;;;;;;;;5010454;28;20049;-84
2022/10/28 09:24:56;;;;;;;44.00;19.83;;;;;;;;;;4989901;28;20102;-85
2022/10/28 09:27:28;;;;;;;42.42;21.05;;;;;;;;;;5007133;28;20094;-85
2022/10/28 09:29:58;;;;;;;37.08;18.85;;;;;;;;;;4989726;28;20077;-85
2022/10/28 09:32:40;;;;;;;39.20;19.67;;;;;;;;;;4990392;28;20027;-84
2022/10/28 09:35:13;;;;;;;33.17;17.55;;;;;;;;;;4997301;28;20026;-85
2022/10/28 09:38:06;;;;;;;37.00;17.27;;;;;;;;;;5009631;28;20022;-84
2022/10/28 09:40:33;;;;;;;38.97;18.50;;;;;;;;;;5006047;28;20034;-84
2022/10/28 09:43:15;;;;;;;46.58;20.42;;;;;;;;;;5008923;28;20053;-84
2022/10/28 09:45:44;;;;;;;39.55;18.27;;;;;;;;;;5006976;28;20018;-84
2022/10/28 09:48:16;;;;;;;40.63;19.08;;;;;;;;;;5026660;28;20025;-84
2022/10/28 09:50:46;;;;;;;35.63;17.98;;;;;;;;;;5009738;28;20022;-84
2022/10/28 09:53:19;;;;;;;41.95;18.38;;;;;;;;;;5026467;28;20037;-83
2022/10/28 09:55:45;;;;;;;35.88;17.40;;;;;;;;;;5026731;28;20132;-82
2022/10/28 09:58:12;;;;;;;33.53;19.13;;;;;;;;;;5008326;28;20036;-84
2022/10/28 10:00:38;;;;;;;44.88;20.88;;;;;;;;;;5026068;28;20057;-84
2022/10/28 10:03:05;;;;;;;35.55;18.30;;;;;;;;;;5025596;28;20050;-84
2022/10/28 10:05:33;;;;;;;29.35;15.73;;;;;;;;;;5009046;28;20030;-84
2022/10/28 10:08:03;;;;;;;31.30;15.68;;;;;;;;;;5007821;28;20025;-83
2022/10/28 10:10:34;;;;;;;35.30;15.88;;;;;;;;;;5026009;28;20034;-84
2022/10/28 10:13:03;;;;;;;38.77;19.83;;;;;;;;;;5009179;28;20097;-84
2022/10/28 10:15:37;;;;;;;40.15;19.58;;;;;;;;;;4994336;28;20026;-84
2022/10/28 10:18:05;;;;;;;39.53;19.95;;;;;;;;;;5010777;28;20018;-84
2022/10/28 10:20:57;;;;;;;36.45;18.90;;;;;;;;;;5014058;23;20429;-79
2022/10/28 10:23:23;;;;;;;37.03;19.73;;;;;;;;;;4986783;28;20046;-77
2022/10/28 10:26:01;;;;;;;37.08;18.35;;;;;;;;;;4978532;28;20479;-78
2022/10/28 10:28:27;;;;;;;35.13;17.45;;;;;;;;;;4978739;28;20015;-78
2022/10/28 10:31:01;;;;;;;27.50;15.30;;;;;;;;;;4976869;28;20042;-77
2022/10/28 10:33:35;;;;;;;34.65;18.70;;;;;;;;;;4971870;28;20532;-76
2022/10/28 10:36:03;;;;;;;36.03;17.77;;;;;;;;;;4974400;28;20545;-76
2022/10/28 10:38:29;;;;;;;35.95;18.55;;;;;;;;;;4971123;28;20027;-76
2022/10/28 10:40:55;;;;;;;36.75;18.77;;;;;;;;;;4969237;28;20030;-76
2022/10/28 10:43:23;;;;;;;35.55;18.38;;;;;;;;;;4969827;28;20513;-76
2022/10/28 10:46:07;;;;;;;34.85;18.80;;;;;;;;;;4972164;28;20030;-77
2022/10/28 10:48:37;;;;;;;36.50;19.27;;;;;;;;;;4990658;28;20061;-76
2022/10/28 10:51:07;;;;;;;33.38;17.58;;;;;;;;;;4980899;28;20058;-76
2022/10/28 10:53:34;;;;;;;38.28;19.67;;;;;;;;;;4972052;28;20054;-77
2022/10/28 10:56:01;;;;;;;41.08;19.92;;;;;;;;;;4979452;28;20033;-76
2022/10/28 10:58:30;;;;;;;37.28;19.33;;;;;;;;;;4971773;28;20031;-76
2022/10/28 11:00:57;;;;;;;37.78;18.83;;;;;;;;;;4973909;28;20034;-77
2022/10/28 11:03:28;;;;;;;35.63;19.05;;;;;;;;;;4974577;28;20089;-76
2022/10/28 11:05:56;;;;;;;38.38;20.45;;;;;;;;;;4971551;28;20097;-77
2022/10/28 11:08:33;;;;;;;36.75;20.17;;;;;;;;;;4969746;28;20035;-77
2022/10/28 11:11:07;;;;;;;38.33;20.98;;;;;;;;;;4971527;28;20054;-77
2022/10/28 11:13:34;;;;;;;45.05;22.38;;;;;;;;;;4971642;28;20058;-77
2022/10/28 11:16:01;;;;;;;40.65;19.80;;;;;;;;;;4969545;28;20039;-76
2022/10/28 11:18:30;;;;;;;41.33;20.73;;;;;;;;;;4971925;28;20390;-76
2022/10/28 11:21:02;;;;;;;42.72;21.20;;;;;;;;;;4971962;28;20126;-77
2022/10/28 11:23:36;;;;;;;37.88;20.30;;;;;;;;;;4972291;28;20355;-77
2022/10/28 11:26:05;;;;;;;37.90;20.63;;;;;;;;;;4978884;28;20512;-77
2022/10/28 11:28:36;;;;;;;33.92;18.73;;;;;;;;;;4971632;28;20034;-76
2022/10/28 11:31:21;;;;;;;30.15;17.30;;;;;;;;;;4974245;28;20022;-76
2022/10/28 11:34:02;;;;;;;33.25;18.13;;;;;;;;;;4974711;28;20031;-77
2022/10/28 11:36:34;;;;;;;33.63;18.13;;;;;;;;;;4974577;28;20102;-77
2022/10/28 11:39:18;;;;;;;30.00;16.48;;;;;;;;;;4974182;28;20152;-77
2022/10/28 11:41:49;;;;;;;30.13;17.10;;;;;;;;;;4968950;28;20615;-77
2022/10/28 11:44:20;;;;;;;30.08;16.48;;;;;;;;;;4973579;28;20505;-76
2022/10/28 11:47:09;;;;;;;32.33;16.52;;;;;;;;;;4970165;28;20526;-77
2022/10/28 11:50:01;;;;;;;29.63;15.75;;;;;;;;;;4972585;28;20023;-77
2022/10/28 11:52:43;;;;;;;27.52;14.63;;;;;;;;;;4973032;28;20019;-76
2022/10/28 11:55:27;;;;;;;27.10;15.15;;;;;;;;;;4964216;28;20031;-77
2022/10/28 11:58:01;;;;;;;29.05;15.93;;;;;;;;;;4969793;28;20073;-76
2022/10/28 12:00:41;;;;;;;32.05;17.52;;;;;;;;;;4971775;28;20070;-76
2022/10/28 12:03:13;;;;;;;29.60;17.60;;;;;;;;;;4973998;28;20058;-76
2022/10/28 12:06:00;;;;;;;24.65;14.77;;;;;;;;;;4972543;28;20065;-77
2022/10/28 12:08:35;;;;;;;29.85;15.98;;;;;;;;;;4978609;28;20109;-76
2022/10/28 12:11:07;;;;;;;26.95;15.85;;;;;;;;;;4972878;28;20533;-77
2022/10/28 12:13:33;;;;;;;34.03;18.38;;;;;;;;;;4972542;28;20077;-77
2022/10/28 12:15:59;;;;;;;36.75;20.83;;;;;;;;;;4973998;28;20457;-77
2022/10/28 12:18:25;;;;;;;32.53;18.23;;;;;;;;;;4968448;28;20109;-77
2022/10/28 12:20:54;;;;;;;35.28;19.48;;;;;;;;;;4974411;28;20129;-76
2022/10/28 12:23:22;;;;;;;34.70;20.25;;;;;;;;;;4973174;28;20047;-76
2022/10/28 12:25:49;;;;;;;33.15;20.70;;;;;;;;;;4971689;28;20451;-76
2022/10/28 12:28:42;;;;;;;31.88;18.92;;;;;;;;;;4975543;28;20038;-76
2022/10/28 12:31:11;;;;;;;26.48;16.27;;;;;;;;;;4971989;28;20055;-76
2022/10/28 12:33:43;;;;;;;30.08;16.58;;;;;;;;;;4974906;28;20052;-77
2022/10/28 12:36:09;;;;;;;31.23;18.33;;;;;;;;;;4973533;28;20026;-79
2022/10/28 12:38:57;;;;;;;29.50;17.05;;;;;;;;;;4973280;28;20045;-78
2022/10/28 12:41:27;;;;;;;30.38;17.30;;;;;;;;;;4975137;28;20494;-78
2022/10/28 12:44:03;;;;;;;31.77;18.23;;;;;;;;;;4974920;28;20103;-79
2022/10/28 12:46:46;;;;;;;25.60;15.68;;;;;;;;;;4975006;28;20486;-78
2022/10/28 12:49:15;;;;;;;26.25;14.05;;;;;;;;;;4973758;28;20034;-78
2022/10/28 12:51:41;;;;;;;25.27;14.68;;;;;;;;;;4974759;28;20501;-79
2022/10/28 12:54:16;;;;;;;24.95;13.43;;;;;;;;;;4974975;28;20038;-78
2022/10/28 12:56:48;;;;;;;26.27;14.10;;;;;;;;;;4973309;28;20031;-78
2022/10/28 12:59:30;;;;;;;22.67;13.73;;;;;;;;;;4975306;28;20381;-78
2022/10/28 13:01:56;;;;;;;25.65;14.20;;;;;;;;;;4955063;28;20034;-78
2022/10/28 13:04:22;;;;;;;25.05;14.35;;;;;;;;;;4972688;28;20486;-78
2022/10/28 13:06:48;;;;;;;24.33;15.48;;;;;;;;;;4975737;28;20517;-78
2022/10/28 13:09:17;;;;;;;25.85;15.18;;;;;;;;;;4974562;28;20058;-78
2022/10/28 13:11:52;;;;;;;27.77;15.52;;;;;;;;;;4967480;28;20059;-78
2022/10/28 13:14:18;;;;;;;30.38;17.00;;;;;;;;;;4972308;28;20449;-78
2022/10/28 13:16:50;;;;;;;26.77;14.25;;;;;;;;;;4971624;28;20031;-78
2022/10/28 13:19:22;;;;;;;30.48;14.93;;;;;;;;;;4972373;28;20117;-78
2022/10/28 13:22:21;;;;;;;25.42;13.45;;;;;;;;;;4977684;28;20115;-80
2022/10/28 13:25:00;;;;;;;21.80;12.02;;;;;;;;;;4954394;28;20034;-79
2022/10/28 13:27:27;;;;;;;21.13;11.95;;;;;;;;;;4977111;28;20034;-80
2022/10/28 13:29:54;;;;;;;20.88;13.55;;;;;;;;;;4977938;28;20031;-78
2022/10/28 13:32:32;;;;;;;25.70;14.13;;;;;;;;;;4978005;28;20066;-79
2022/10/28 13:34:59;;;;;;;28.40;14.95;;;;;;;;;;4977356;28;20037;-80
2022/10/28 13:37:26;;;;;;;28.92;16.25;;;;;;;;;;4978608;28;20100;-80
2022/10/28 13:39:53;;;;;;;30.83;17.48;;;;;;;;;;4979133;28;20047;-79
2022/10/28 13:42:22;;;;;;;32.35;17.15;;;;;;;;;;4978237;28;20038;-80
2022/10/28 13:44:49;;;;;;;30.95;17.25;;;;;;;;;;4978421;28;20368;-80
2022/10/28 13:47:26;;;;;;;31.02;16.50;;;;;;;;;;4978355;28;20553;-80
2022/10/28 13:50:07;;;;;;;30.83;17.25;;;;;;;;;;4977804;28;20022;-77
2022/10/28 13:52:37;;;;;;;26.35;14.98;;;;;;;;;;4976431;28;20011;-79
2022/10/28 13:55:20;;;;;;;27.35;15.40;;;;;;;;;;4977470;28;20019;-80
2022/10/28 13:57:48;;;;;;;28.75;15.82;;;;;;;;;;4976113;28;20475;-80
2022/10/28 14:00:16;;;;;;;25.52;15.88;;;;;;;;;;4975104;28;20339;-79
2022/10/28 14:02:53;;;;;;;32.40;17.27;;;;;;;;;;4977512;28;20441;-80
2022/10/28 14:05:21;;;;;;;32.75;16.67;;;;;;;;;;4977663;28;20031;-79
2022/10/28 14:07:58;;;;;;;26.52;15.85;;;;;;;;;;4977034;28;20026;-80
2022/10/28 14:10:28;;;;;;;27.20;16.23;;;;;;;;;;4977774;28;20085;-80
2022/10/28 14:13:20;;;;;;;28.52;15.43;;;;;;;;;;4978337;28;20050;-79
2022/10/28 14:15:47;;;;;;;25.30;15.37;;;;;;;;;;4976445;28;20030;-80
2022/10/28 14:18:13;;;;;;;24.85;14.40;;;;;;;;;;4974621;28;20022;-79
2022/10/28 14:20:48;;;;;;;25.48;15.13;;;;;;;;;;4970313;28;20531;-80
2022/10/28 14:23:37;;;;;;;30.10;16.85;;;;;;;;;;4976721;28;20058;-80
2022/10/28 14:26:04;;;;;;;30.85;16.85;;;;;;;;;;4943363;28;20130;-78
2022/10/28 14:28:30;;;;;;;26.65;14.85;;;;;;;;;;4973330;28;20030;-78
2022/10/28 14:31:10;;;;;;;29.33;15.75;;;;;;;;;;4974864;28;20027;-79
2022/10/28 14:33:36;;;;;;;29.65;15.35;;;;;;;;;;4974555;28;20494;-79
2022/10/28 14:36:17;;;;;;;29.63;15.60;;;;;;;;;;4973758;28;20041;-78
2022/10/28 14:38:46;;;;;;;31.58;15.95;;;;;;;;;;4972457;28;20109;-77